Time;durP1;ratioP1;P1;durP2;ratioP2;P2;SDS_P1;SDS_P2;PMS_P1;PMS_P2;Temp;Humidity;BMP_temperature;BMP_pressure;BME280_temperature;BME280_humidity;BME280_pressure;Samples;Min_cycle;Max_cycle;Signal;HPM_P1;HPM_P2
2021/03/05 00:00:17;;;;;;;26.97;4.07;;;5.60;99.90;;;;;;5130035;28;20163;-65
2021/03/05 00:02:43;;;;;;;16.20;3.73;;;5.60;99.90;;;;;;5132729;28;20169;-66
2021/03/05 00:05:10;;;;;;;12.27;3.70;;;5.60;99.90;;;;;;5132779;28;20158;-66
2021/03/05 00:07:36;;;;;;;19.27;3.90;;;5.80;99.90;;;;;;5132723;28;20227;-65
2021/03/05 00:10:06;;;;;;;22.77;3.93;;;5.90;99.90;;;;;;5129999;28;20476;-66
2021/03/05 00:12:31;;;;;;;19.37;3.97;;;5.90;99.90;;;;;;5132585;28;20194;-66
2021/03/05 00:14:57;;;;;;;20.10;4.03;;;6.00;99.90;;;;;;5132898;28;20162;-66
2021/03/05 00:17:22;;;;;;;13.60;3.93;;;5.90;99.90;;;;;;5133108;28;20159;-66
2021/03/05 00:19:48;;;;;;;18.70;4.10;;;5.90;99.90;;;;;;5130203;28;20163;-65
2021/03/05 00:22:14;;;;;;;13.40;4.00;;;5.90;99.90;;;;;;5132675;28;20643;-66
2021/03/05 00:24:39;;;;;;;20.37;3.50;;;5.90;99.90;;;;;;5132271;28;20592;-66
2021/03/05 00:27:05;;;;;;;20.73;4.10;;;5.70;99.90;;;;;;5132696;28;20661;-66
2021/03/05 00:29:31;;;;;;;26.63;4.37;;;5.80;99.90;;;;;;5131950;28;20185;-66
2021/03/05 00:31:56;;;;;;;17.50;4.37;;;5.70;99.90;;;;;;5130703;28;20194;-66
2021/03/05 00:34:22;;;;;;;22.63;4.27;;;5.70;99.90;;;;;;5132789;28;20162;-65
2021/03/05 00:36:48;;;;;;;16.07;3.63;;;5.70;99.90;;;;;;5132573;28;20159;-66
2021/03/05 00:39:14;;;;;;;15.23;3.90;;;5.80;99.90;;;;;;5132216;28;20174;-66
2021/03/05 00:41:40;;;;;;;15.10;3.43;;;5.90;99.90;;;;;;5129697;28;20166;-65
2021/03/05 00:44:06;;;;;;;21.33;4.33;;;5.90;99.90;;;;;;5132587;28;20166;-65
2021/03/05 00:46:32;;;;;;;23.77;4.40;;;5.90;99.90;;;;;;5129951;28;20190;-65
2021/03/05 00:48:57;;;;;;;14.27;4.40;;;5.90;99.90;;;;;;5129267;28;20162;-66
2021/03/05 00:51:23;;;;;;;21.07;4.87;;;5.80;99.90;;;;;;5125256;28;20205;-66
2021/03/05 00:53:49;;;;;;;20.03;4.50;;;5.80;99.90;;;;;;5129135;28;20170;-66
2021/03/05 00:56:15;;;;;;;23.47;4.63;;;5.50;99.90;;;;;;5128835;28;20174;-65
2021/03/05 00:58:40;;;;;;;27.90;5.03;;;5.60;99.90;;;;;;5128959;28;20163;-65
2021/03/05 01:01:06;;;;;;;16.00;4.50;;;5.40;99.90;;;;;;5126355;28;20162;-66
2021/03/05 01:03:32;;;;;;;17.87;4.40;;;5.50;99.90;;;;;;5128714;28;20158;-66
2021/03/05 01:05:58;;;;;;;18.53;4.60;;;5.60;99.90;;;;;;5128743;28;20158;-65
2021/03/05 01:08:24;;;;;;;15.37;4.33;;;5.50;99.90;;;;;;5128966;28;20223;-65
2021/03/05 01:10:49;;;;;;;18.53;4.63;;;5.50;99.90;;;;;;5126028;28;20167;-66
2021/03/05 01:13:16;;;;;;;21.67;4.63;;;5.40;99.90;;;;;;5128985;28;20691;-66
2021/03/05 01:15:41;;;;;;;14.60;4.60;;;5.40;99.90;;;;;;5128741;28;20159;-65
2021/03/05 01:18:07;;;;;;;17.73;4.57;;;5.40;99.90;;;;;;5127582;28;20170;-66
2021/03/05 01:20:34;;;;;;;23.23;5.00;;;5.30;99.90;;;;;;5125973;28;20166;-65
2021/03/05 01:23:00;;;;;;;13.90;5.07;;;5.40;99.90;;;;;;5128614;28;20230;-65
2021/03/05 01:25:29;;;;;;;13.70;4.83;;;5.60;99.90;;;;;;5128149;28;20162;-66
2021/03/05 01:27:55;;;;;;;10.97;4.67;;;5.70;99.90;;;;;;5128592;28;20210;-65
2021/03/05 01:30:21;;;;;;;16.53;5.10;;;5.80;99.90;;;;;;5125963;28;20182;-66
2021/03/05 01:32:47;;;;;;;20.30;5.00;;;5.90;99.90;;;;;;5128282;28;20194;-65
2021/03/05 01:35:16;;;;;;;13.10;4.70;;;5.70;99.90;;;;;;5128598;28;20205;-65
2021/03/05 01:37:42;;;;;;;14.87;4.90;;;5.90;99.90;;;;;;5128229;28;20169;-65
2021/03/05 01:40:30;;;;;;;19.60;4.93;;;6.00;99.90;;;;;;5125531;28;20159;-65
2021/03/05 01:42:56;;;;;;;18.63;5.67;;;6.10;99.90;;;;;;5126626;28;20525;-66
2021/03/05 01:45:25;;;;;;;20.20;5.70;;;6.20;99.90;;;;;;5128320;28;20188;-66
2021/03/05 01:48:00;;;;;;;17.87;5.23;;;6.30;99.90;;;;;;5128238;28;20163;-66
2021/03/05 01:50:30;;;;;;;15.80;5.43;;;6.30;99.90;;;;;;5125318;28;20623;-66
2021/03/05 01:52:59;;;;;;;13.17;5.57;;;6.30;99.90;;;;;;5128162;28;20459;-66
2021/03/05 01:55:25;;;;;;;18.30;5.03;;;6.30;99.90;;;;;;5127840;28;20228;-66
2021/03/05 01:57:51;;;;;;;21.83;5.80;;;6.40;99.90;;;;;;5126839;28;20158;-65
2021/03/05 02:00:28;;;;;;;13.90;5.77;;;6.30;99.90;;;;;;5125181;28;20174;-65
2021/03/05 02:02:54;;;;;;;12.27;5.20;;;6.40;99.90;;;;;;5127899;28;20158;-66
2021/03/05 02:05:20;;;;;;;20.27;5.57;;;6.40;99.90;;;;;;5127965;28;20155;-66
2021/03/05 02:07:45;;;;;;;18.67;5.80;;;6.50;99.90;;;;;;5127757;28;20190;-66
2021/03/05 02:10:11;;;;;;;12.83;6.23;;;6.50;99.90;;;;;;5123420;28;20171;-66
2021/03/05 02:12:37;;;;;;;15.50;6.03;;;6.50;99.90;;;;;;5127645;28;20224;-65
2021/03/05 02:15:05;;;;;;;13.47;6.03;;;6.60;99.90;;;;;;5127658;28;20257;-65
2021/03/05 02:17:49;;;;;;;18.00;6.13;;;6.60;99.90;;;;;;5127427;28;20587;-65
2021/03/05 02:20:33;;;;;;;29.30;6.67;;;6.60;99.90;;;;;;5124781;28;20223;-66
2021/03/05 02:23:26;;;;;;;13.30;6.17;;;6.60;99.90;;;;;;5127518;28;20173;-65
2021/03/05 02:26:22;;;;;;;20.03;6.47;;;6.60;99.90;;;;;;5127178;28;20171;-65
2021/03/05 02:29:04;;;;;;;12.97;5.67;;;6.60;99.90;;;;;;5125917;28;20582;-65
2021/03/05 02:31:56;;;;;;;14.53;6.43;;;6.70;99.90;;;;;;5124611;28;20190;-66
2021/03/05 02:34:27;;;;;;;15.63;5.80;;;6.70;99.90;;;;;;5118843;28;20213;-66
2021/03/05 02:36:55;;;;;;;16.40;6.80;;;6.70;99.90;;;;;;5127310;28;20169;-65
2021/03/05 02:39:57;;;;;;;22.70;7.10;;;6.60;99.90;;;;;;5126894;28;20170;-66
2021/03/05 02:42:40;;;;;;;14.27;5.43;;;6.60;99.90;;;;;;5126160;28;20158;-65
2021/03/05 02:45:17;;;;;;;19.33;6.43;;;6.50;99.90;;;;;;5127139;28;20281;-66
2021/03/05 02:47:46;;;;;;;14.23;6.00;;;6.40;99.90;;;;;;5126917;28;20154;-66
2021/03/05 02:50:15;;;;;;;19.37;5.70;;;6.40;99.90;;;;;;5124135;28;20182;-66
2021/03/05 02:52:43;;;;;;;24.37;5.67;;;6.20;99.90;;;;;;5126760;28;20609;-65
2021/03/05 02:55:11;;;;;;;14.23;5.07;;;6.00;99.90;;;;;;5126481;28;20165;-65
2021/03/05 02:57:44;;;;;;;12.27;4.77;;;5.80;99.90;;;;;;5126942;28;20159;-66
2021/03/05 03:00:10;;;;;;;16.73;5.00;;;5.70;99.90;;;;;;5124047;28;20167;-66
2021/03/05 03:02:38;;;;;;;12.23;4.80;;;5.80;99.90;;;;;;5126669;28;20159;-65
2021/03/05 03:05:05;;;;;;;16.70;5.13;;;5.80;99.90;;;;;;5126863;28;20190;-66
2021/03/05 03:07:31;;;;;;;12.30;4.80;;;5.60;99.90;;;;;;5126540;28;20185;-65
2021/03/05 03:09:58;;;;;;;6.90;4.17;;;5.50;99.90;;;;;;5123268;28;20171;-68
2021/03/05 03:12:24;;;;;;;12.70;4.87;;;5.40;99.90;;;;;;5126600;28;20667;-65
2021/03/05 03:14:50;;;;;;;16.50;5.67;;;5.40;99.90;;;;;;5126673;28;20161;-66
2021/03/05 03:17:17;;;;;;;22.13;6.07;;;5.40;99.90;;;;;;5126620;28;20155;-66
2021/03/05 03:19:48;;;;;;;12.67;4.67;;;5.50;99.90;;;;;;5124479;28;20168;-65
2021/03/05 03:22:14;;;;;;;19.90;6.07;;;5.30;99.90;;;;;;5125382;28;20276;-66
2021/03/05 03:24:41;;;;;;;12.30;5.30;;;5.20;99.90;;;;;;5126118;28;20203;-65
2021/03/05 03:27:08;;;;;;;17.40;4.97;;;5.30;99.90;;;;;;5126471;28;20155;-65
2021/03/05 03:29:33;;;;;;;16.60;5.77;;;5.20;99.90;;;;;;5125452;28;20174;-66
2021/03/05 03:31:59;;;;;;;13.50;5.60;;;5.50;99.90;;;;;;5124751;28;20190;-66
2021/03/05 03:34:26;;;;;;;11.60;5.47;;;5.60;99.90;;;;;;5126433;28;20166;-66
2021/03/05 03:36:53;;;;;;;19.10;5.30;;;5.70;99.90;;;;;;5126490;28;20170;-65
2021/03/05 03:39:18;;;;;;;16.63;5.67;;;5.70;99.90;;;;;;5126086;28;20170;-66
2021/03/05 03:41:44;;;;;;;18.57;5.87;;;5.90;99.90;;;;;;5123434;28;20204;-66
2021/03/05 03:44:12;;;;;;;9.30;6.47;;;6.00;99.90;;;;;;5126253;28;20600;-66
2021/03/05 03:46:42;;;;;;;13.97;6.67;;;6.00;99.90;;;;;;5126157;28;20223;-66
2021/03/05 03:49:14;;;;;;;17.70;6.00;;;6.10;99.90;;;;;;5126351;28;20166;-65
2021/03/05 03:51:46;;;;;;;14.63;6.17;;;6.10;99.90;;;;;;5123462;28;20186;-66
2021/03/05 03:54:15;;;;;;;11.87;5.97;;;6.10;99.90;;;;;;5126173;28;20166;-66
2021/03/05 03:56:42;;;;;;;14.33;6.40;;;6.10;99.90;;;;;;5126020;28;20166;-66
2021/03/05 03:59:12;;;;;;;16.73;7.47;;;6.00;99.90;;;;;;5126169;28;20182;-65
2021/03/05 04:01:39;;;;;;;11.87;7.20;;;5.80;99.90;;;;;;5123403;28;20169;-65
2021/03/05 04:04:06;;;;;;;15.40;7.77;;;5.80;99.90;;;;;;5126189;28;20158;-66
2021/03/05 04:06:34;;;;;;;12.90;7.70;;;5.80;99.90;;;;;;5125873;28;20162;-65
2021/03/05 04:09:01;;;;;;;22.43;9.07;;;5.70;99.90;;;;;;5124800;28;20226;-66
2021/03/05 04:11:28;;;;;;;11.23;7.47;;;5.60;99.90;;;;;;5122811;28;20206;-66
2021/03/05 04:13:54;;;;;;;15.40;8.50;;;5.60;99.90;;;;;;5126035;28;20155;-66
2021/03/05 04:16:20;;;;;;;15.27;8.03;;;5.50;99.90;;;;;;5126087;28;20157;-66
2021/03/05 04:18:45;;;;;;;14.70;8.23;;;5.40;99.90;;;;;;5125937;28;20163;-65
2021/03/05 04:21:19;;;;;;;13.23;8.07;;;5.30;99.90;;;;;;5123804;28;20237;-65
2021/03/05 04:23:44;;;;;;;13.93;7.50;;;5.20;99.90;;;;;;5129876;28;20159;-66
2021/03/05 04:26:10;;;;;;;16.97;8.20;;;5.20;99.90;;;;;;5129537;28;20167;-65
2021/03/05 04:28:35;;;;;;;16.30;7.93;;;5.20;99.90;;;;;;5129642;28;20767;-66
2021/03/05 04:31:01;;;;;;;18.57;9.97;;;5.10;99.90;;;;;;5126698;28;20402;-66
2021/03/05 04:33:27;;;;;;;15.70;9.43;;;5.10;99.90;;;;;;5129555;28;20675;-66
2021/03/05 04:35:53;;;;;;;22.47;9.57;;;5.10;99.90;;;;;;5129685;28;20166;-66
2021/03/05 04:38:18;;;;;;;18.20;9.77;;;5.10;99.90;;;;;;5129606;28;20218;-66
2021/03/05 04:40:44;;;;;;;25.27;12.27;;;5.00;99.90;;;;;;5124690;28;20471;-65
2021/03/05 04:43:10;;;;;;;25.60;10.10;;;5.10;99.90;;;;;;5129477;28;20218;-65
2021/03/05 04:45:36;;;;;;;15.73;9.57;;;5.10;99.90;;;;;;5129156;28;20200;-66
2021/03/05 04:48:01;;;;;;;16.47;10.03;;;5.00;99.90;;;;;;5129404;28;20170;-65
2021/03/05 04:50:27;;;;;;;23.13;14.13;;;5.00;99.90;;;;;;5125535;27;20435;-66
2021/03/05 04:52:52;;;;;;;17.37;11.70;;;5.20;99.90;;;;;;5129242;28;20216;-66
2021/03/05 04:55:18;;;;;;;22.00;12.13;;;5.30;99.90;;;;;;5129028;28;20219;-65
2021/03/05 04:57:44;;;;;;;21.93;11.97;;;5.20;99.90;;;;;;5129059;28;20159;-66
2021/03/05 05:00:10;;;;;;;21.20;12.10;;;5.20;99.90;;;;;;5126378;28;20271;-65
2021/03/05 05:02:36;;;;;;;22.40;11.93;;;5.40;99.90;;;;;;5128931;28;20208;-66
2021/03/05 05:05:01;;;;;;;18.27;11.47;;;5.30;99.90;;;;;;5128939;28;20494;-65
2021/03/05 05:07:27;;;;;;;19.77;11.70;;;5.50;99.90;;;;;;5128933;28;20230;-66
2021/03/05 05:09:53;;;;;;;17.73;10.97;;;5.60;99.90;;;;;;5125919;28;20319;-65
2021/03/05 05:12:19;;;;;;;15.97;11.10;;;5.70;99.90;;;;;;5128876;28;20190;-66
2021/03/05 05:14:44;;;;;;;23.05;15.15;;;5.80;99.90;;;;;;5126861;28;20422;-66
2021/03/05 05:17:10;;;;;;;19.67;11.77;;;6.10;99.90;;;;;;5128925;28;20163;-66
2021/03/05 05:19:36;;;;;;;20.53;11.83;;;6.00;99.90;;;;;;5127483;28;20170;-65
2021/03/05 05:22:02;;;;;;;14.77;9.67;;;6.00;99.90;;;;;;5127124;28;20163;-65
2021/03/05 05:24:28;;;;;;;19.10;10.93;;;6.00;99.90;;;;;;5128618;28;20174;-65
2021/03/05 05:26:53;;;;;;;17.30;10.80;;;5.80;99.90;;;;;;5128402;28;20171;-66
2021/03/05 05:29:19;;;;;;;13.67;10.00;;;5.70;99.90;;;;;;5128521;28;20221;-65
2021/03/05 05:31:45;;;;;;;14.10;10.50;;;5.70;99.90;;;;;;5125453;28;20213;-65
2021/03/05 05:34:10;;;;;;;13.20;9.47;;;5.70;99.90;;;;;;5128274;28;20161;-66
2021/03/05 05:36:36;;;;;;;18.70;9.40;;;5.60;99.90;;;;;;5128314;28;20162;-66
2021/03/05 05:39:02;;;;;;;15.17;9.07;;;5.40;99.90;;;;;;5128766;28;20154;-65
2021/03/05 05:41:27;;;;;;;15.50;9.63;;;5.30;99.90;;;;;;5125334;28;20636;-66
2021/03/05 05:43:53;;;;;;;14.97;9.70;;;5.30;99.90;;;;;;5128358;28;20163;-65
2021/03/05 05:46:22;;;;;;;12.47;9.17;;;5.10;99.90;;;;;;5128150;28;20223;-66
2021/03/05 05:48:49;;;;;;;16.60;9.80;;;5.10;99.90;;;;;;5127974;28;20716;-65
2021/03/05 05:51:24;;;;;;;16.77;11.97;;;5.10;99.90;;;;;;5123940;28;20173;-65
2021/03/05 05:53:51;;;;;;;16.03;11.50;;;5.00;99.90;;;;;;5126711;28;20162;-65
2021/03/05 05:56:19;;;;;;;19.27;12.53;;;4.90;99.90;;;;;;5127595;28;20163;-65
2021/03/05 05:58:45;;;;;;;21.10;11.57;;;4.90;99.90;;;;;;5127816;28;20250;-66
2021/03/05 06:01:11;;;;;;;18.30;12.80;;;4.90;99.90;;;;;;5125386;28;20174;-66
2021/03/05 06:03:38;;;;;;;17.67;12.47;;;4.90;99.90;;;;;;5127808;27;20163;-65
2021/03/05 06:06:04;;;;;;;23.47;13.00;;;4.80;99.90;;;;;;5127739;28;20159;-65
2021/03/05 06:08:30;;;;;;;19.88;14.02;;;4.70;99.90;;;;;;5127226;28;20438;-66
2021/03/05 06:10:56;;;;;;;23.73;14.03;;;4.90;99.90;;;;;;5125059;28;20223;-65
2021/03/05 06:13:25;;;;;;;19.03;13.17;;;4.80;99.90;;;;;;5127665;28;20190;-65
2021/03/05 06:16:29;;;;;;;23.30;13.17;;;4.70;99.90;;;;;;5127641;28;20158;-65
2021/03/05 06:18:55;;;;;;;23.47;13.60;;;4.70;99.90;;;;;;5064574;28;20168;-66
2021/03/05 06:21:38;;;;;;;24.07;14.20;;;4.60;99.90;;;;;;5061840;28;20164;-65
2021/03/05 06:24:07;;;;;;;17.97;13.63;;;4.50;99.90;;;;;;5064448;28;20176;-65
2021/03/05 06:27:00;;;;;;;25.80;16.93;;;4.40;99.90;;;;;;5063359;28;20493;-65
2021/03/05 06:29:28;;;;;;;23.60;14.20;;;4.50;99.90;;;;;;5064209;28;20189;-65
2021/03/05 06:32:03;;;;;;;25.43;14.30;;;4.40;99.90;;;;;;5062153;28;20189;-65
2021/03/05 06:34:30;;;;;;;23.43;15.03;;;4.40;99.90;;;;;;5064043;28;20172;-65
2021/03/05 06:37:05;;;;;;;23.40;14.00;;;4.50;99.90;;;;;;5064098;28;20200;-64
2021/03/05 06:39:33;;;;;;;21.07;15.27;;;4.50;99.90;;;;;;5063537;28;20169;-65
2021/03/05 06:42:03;;;;;;;27.40;14.60;;;4.50;99.90;;;;;;5061913;28;20183;-65
2021/03/05 06:44:29;;;;;;;32.80;14.83;;;4.50;99.90;;;;;;5063304;28;20425;-65
2021/03/05 06:46:55;;;;;;;21.27;14.60;;;4.50;99.90;;;;;;5063847;28;20176;-65
2021/03/05 06:49:21;;;;;;;22.37;14.63;;;4.40;99.90;;;;;;5087849;28;20763;-65
2021/03/05 06:51:56;;;;;;;23.67;14.20;;;4.50;99.90;;;;;;5123675;28;20190;-65
2021/03/05 06:54:28;;;;;;;28.33;16.10;;;4.50;99.90;;;;;;5125396;28;20177;-65
2021/03/05 06:56:54;;;;;;;26.73;15.83;;;4.50;99.90;;;;;;5126343;28;20177;-65
2021/03/05 06:59:21;;;;;;;23.83;14.63;;;4.60;99.90;;;;;;5126675;28;20162;-64
2021/03/05 07:01:58;;;;;;;22.67;13.50;;;4.60;99.90;;;;;;5122324;28;20202;-64
2021/03/05 07:04:29;;;;;;;19.73;13.30;;;4.50;99.90;;;;;;5126601;28;20162;-65
2021/03/05 07:07:03;;;;;;;22.67;14.40;;;4.60;99.90;;;;;;5126471;28;20167;-65
2021/03/05 07:09:34;;;;;;;22.50;13.57;;;4.60;99.90;;;;;;5124711;28;20177;-65
2021/03/05 07:12:12;;;;;;;19.97;12.80;;;4.60;99.90;;;;;;5124442;28;20242;-65
2021/03/05 07:14:47;;;;;;;24.27;13.60;;;4.60;99.90;;;;;;5126223;28;20182;-65
2021/03/05 07:17:14;;;;;;;21.07;12.73;;;4.70;99.90;;;;;;5126232;28;20166;-65
2021/03/05 07:19:40;;;;;;;23.07;12.83;;;4.70;99.90;;;;;;5124471;28;20231;-65
2021/03/05 07:22:08;;;;;;;20.70;12.50;;;4.80;99.90;;;;;;5125039;28;20155;-65
2021/03/05 07:24:38;;;;;;;22.30;11.90;;;4.80;99.90;;;;;;5125776;28;20245;-65
2021/03/05 07:27:06;;;;;;;16.57;11.33;;;4.80;99.90;;;;;;5125484;28;20229;-65
2021/03/05 07:29:46;;;;;;;20.73;11.23;;;4.80;99.90;;;;;;5125282;28;20250;-65
2021/03/05 07:32:17;;;;;;;21.40;10.50;;;4.90;99.90;;;;;;5124460;28;20610;-65
2021/03/05 07:34:45;;;;;;;18.17;9.93;;;5.00;99.90;;;;;;5125790;28;20162;-65
2021/03/05 07:37:12;;;;;;;13.07;8.47;;;5.00;99.90;;;;;;5125795;28;20235;-64
2021/03/05 07:39:49;;;;;;;16.97;9.30;;;5.10;99.90;;;;;;5123937;28;20246;-65
2021/03/05 07:42:16;;;;;;;12.30;8.23;;;5.20;99.90;;;;;;5126058;28;20166;-65
2021/03/05 07:44:42;;;;;;;13.63;7.90;;;5.30;99.90;;;;;;5125872;28;20166;-65
2021/03/05 07:47:13;;;;;;;13.30;7.90;;;5.20;99.90;;;;;;5125869;28;20169;-65
2021/03/05 07:49:40;;;;;;;12.03;7.17;;;5.30;99.90;;;;;;5124483;28;20163;-65
2021/03/05 07:52:08;;;;;;;9.63;6.90;;;5.20;99.90;;;;;;5124758;28;20197;-65
2021/03/05 07:54:39;;;;;;;9.40;6.77;;;5.20;99.90;;;;;;5125847;28;20222;-65
2021/03/05 07:57:06;;;;;;;16.40;6.47;;;5.30;99.90;;;;;;5129506;28;20201;-65
2021/03/05 07:59:52;;;;;;;9.63;5.83;;;5.30;99.90;;;;;;5129350;28;20219;-65
2021/03/05 08:02:19;;;;;;;9.23;5.37;;;5.40;99.90;;;;;;5129740;28;20178;-65
2021/03/05 08:05:20;;;;;;;7.40;5.80;;;5.30;99.90;;;;;;5129681;28;20231;-65
2021/03/05 08:07:39;;;;;;;6.60;5.33;;;5.40;99.90;;;;;;5128316;28;20269;-65
2021/03/05 08:10:06;;;;;;;5.90;4.90;;;5.40;99.90;;;;;;5126907;28;20178;-65
2021/03/05 08:12:43;;;;;;;7.90;4.50;;;5.50;99.90;;;;;;5129340;28;20267;-64
2021/03/05 08:15:09;;;;;;;11.10;4.83;;;5.60;99.90;;;;;;5128387;28;20630;-65
2021/03/05 08:17:39;;;;;;;8.37;4.50;;;5.60;99.90;;;;;;5129505;28;20162;-65
2021/03/05 08:20:07;;;;;;;5.03;4.10;;;5.70;99.90;;;;;;5127016;28;20162;-65
2021/03/05 08:22:33;;;;;;;4.53;4.10;;;5.80;99.90;;;;;;5129319;28;20167;-65
2021/03/05 08:25:22;;;;;;;6.93;3.50;;;5.70;99.90;;;;;;5129105;28;20162;-65
2021/03/05 08:27:48;;;;;;;6.87;3.67;;;5.80;99.90;;;;;;5128969;28;20210;-65
2021/03/05 08:30:17;;;;;;;6.13;4.27;;;5.60;99.90;;;;;;5126557;28;20162;-65
2021/03/05 08:33:05;;;;;;;5.63;3.83;;;5.50;99.90;;;;;;5129073;28;20186;-65
2021/03/05 08:35:30;;;;;;;4.90;3.80;;;5.50;99.90;;;;;;5129028;28;20185;-65
2021/03/05 08:37:56;;;;;;;7.37;4.67;;;5.60;99.90;;;;;;5129276;28;20620;-65
2021/03/05 08:40:24;;;;;;;4.87;3.73;;;5.70;99.90;;;;;;5126601;28;20249;-65
2021/03/05 08:42:56;;;;;;;7.53;4.10;;;5.80;99.90;;;;;;5129329;28;20178;-65
2021/03/05 08:45:28;;;;;;;6.30;4.13;;;5.90;99.90;;;;;;5129109;28;20244;-65
2021/03/05 08:47:59;;;;;;;8.97;4.23;;;6.10;99.90;;;;;;5128977;28;20170;-66
2021/03/05 08:50:30;;;;;;;7.60;3.87;;;6.00;99.90;;;;;;5126448;28;20158;-65
2021/03/05 08:52:58;;;;;;;7.97;4.10;;;5.90;99.90;;;;;;5128833;28;20195;-65
2021/03/05 08:55:23;;;;;;;6.23;4.13;;;5.90;99.90;;;;;;5128464;28;20193;-65
2021/03/05 08:57:52;;;;;;;6.47;4.07;;;5.90;99.90;;;;;;5128762;28;20575;-65
2021/03/05 09:00:19;;;;;;;7.83;3.80;;;5.90;99.90;;;;;;5126027;28;20174;-65
2021/03/05 09:02:47;;;;;;;8.93;4.27;;;6.10;99.90;;;;;;5128756;28;20571;-65
2021/03/05 09:05:23;;;;;;;5.67;3.70;;;6.20;99.90;;;;;;5128815;28;20170;-65
2021/03/05 09:07:56;;;;;;;3.53;2.70;;;6.30;99.90;;;;;;5127589;28;20166;-65
2021/03/05 09:10:36;;;;;;;5.20;3.53;;;6.40;99.90;;;;;;5125872;28;20174;-65
2021/03/05 09:13:02;;;;;;;4.47;3.63;;;6.40;99.90;;;;;;5128157;28;20682;-65
2021/03/05 09:15:47;;;;;;;6.63;3.37;;;6.60;99.90;;;;;;5128148;28;20170;-65
2021/03/05 09:18:18;;;;;;;4.23;2.57;;;6.80;99.90;;;;;;5127055;28;20586;-65
2021/03/05 09:20:50;;;;;;;5.87;3.13;;;6.90;99.90;;;;;;5125182;28;20632;-65
2021/03/05 09:23:23;;;;;;;8.10;3.57;;;6.90;99.90;;;;;;5128354;28;20228;-65
2021/03/05 09:25:54;;;;;;;5.27;3.33;;;7.10;99.90;;;;;;5127819;28;20175;-65
2021/03/05 09:28:22;;;;;;;4.17;3.13;;;7.20;99.90;;;;;;5128269;28;20218;-65
2021/03/05 09:30:50;;;;;;;10.73;3.13;;;7.30;99.90;;;;;;5125088;28;20623;-66
2021/03/05 09:33:16;;;;;;;4.70;2.73;;;7.30;99.90;;;;;;5127787;28;20702;-66
2021/03/05 09:35:41;;;;;;;7.43;3.23;;;7.30;99.90;;;;;;5128008;28;20155;-66
2021/03/05 09:38:07;;;;;;;4.90;3.10;;;7.30;99.90;;;;;;5126454;28;20169;-64
2021/03/05 09:40:34;;;;;;;4.47;3.50;;;7.30;99.90;;;;;;5124495;28;20403;-64
2021/03/05 09:43:01;;;;;;;7.90;3.43;;;7.50;99.90;;;;;;5126716;28;20166;-64
2021/03/05 09:45:32;;;;;;;8.57;3.37;;;7.50;99.90;;;;;;5127806;28;20549;-64
2021/03/05 09:47:58;;;;;;;6.00;2.90;;;7.60;99.90;;;;;;5127664;28;20199;-64
2021/03/05 09:50:26;;;;;;;5.00;2.63;;;7.30;99.90;;;;;;5125108;28;20649;-64
2021/03/05 09:52:51;;;;;;;7.20;3.60;;;7.30;99.90;;;;;;5127485;28;20212;-64
2021/03/05 09:55:30;;;;;;;6.77;3.20;;;7.40;99.90;;;;;;5126799;28;20159;-64
2021/03/05 09:58:10;;;;;;;5.23;3.27;;;7.50;99.90;;;;;;5127249;28;20508;-64
2021/03/05 10:00:36;;;;;;;5.03;2.90;;;7.50;99.90;;;;;;5123461;28;20626;-64
2021/03/05 10:03:04;;;;;;;4.23;3.00;;;7.70;99.90;;;;;;5127655;28;20580;-64
2021/03/05 10:05:31;;;;;;;3.97;3.13;;;7.90;99.90;;;;;;5127527;28;20167;-65
2021/03/05 10:07:57;;;;;;;5.33;3.50;;;8.10;99.90;;;;;;5127673;28;20166;-65
2021/03/05 10:10:22;;;;;;;7.80;3.23;;;8.10;99.90;;;;;;5124771;28;20170;-65
2021/03/05 10:12:53;;;;;;;6.87;3.40;;;8.10;99.90;;;;;;5126997;28;20273;-65
2021/03/05 10:15:19;;;;;;;7.07;3.30;;;8.20;99.90;;;;;;5127307;28;20188;-65
2021/03/05 10:17:45;;;;;;;6.63;4.23;;;8.20;99.90;;;;;;5126921;28;20411;-65
2021/03/05 10:20:11;;;;;;;5.90;3.50;;;8.10;99.90;;;;;;5123204;28;20166;-65
2021/03/05 10:22:37;;;;;;;5.63;3.77;;;8.20;99.90;;;;;;5127015;28;20166;-65
2021/03/05 10:25:04;;;;;;;9.00;3.73;;;8.40;99.90;;;;;;5125518;28;20167;-65
2021/03/05 10:27:41;;;;;;;6.13;3.67;;;8.30;99.90;;;;;;5126900;28;20225;-64
2021/03/05 10:30:08;;;;;;;4.33;3.10;;;8.30;99.90;;;;;;5124020;28;20163;-65
2021/03/05 10:32:43;;;;;;;7.80;3.43;;;8.40;99.90;;;;;;5126588;28;20205;-65
2021/03/05 10:35:10;;;;;;;5.97;3.50;;;8.50;99.90;;;;;;5126586;28;20155;-65
2021/03/05 10:37:36;;;;;;;7.57;3.40;;;8.60;99.90;;;;;;5126779;28;20185;-65
2021/03/05 10:40:07;;;;;;;16.23;3.47;;;8.70;99.90;;;;;;5123521;28;20402;-65
2021/03/05 10:42:33;;;;;;;4.77;3.50;;;8.90;99.90;;;;;;5126464;28;20190;-65
2021/03/05 10:44:59;;;;;;;6.23;3.00;;;9.00;99.90;;;;;;5127116;28;20158;-65
2021/03/05 10:47:24;;;;;;;6.70;3.43;;;9.10;99.90;;;;;;5126848;28;20196;-65
2021/03/05 10:49:51;;;;;;;5.13;3.33;;;9.50;99.90;;;;;;5124645;28;20158;-65
2021/03/05 10:52:18;;;;;;;4.10;3.03;;;9.60;99.90;;;;;;5126851;28;20277;-65
2021/03/05 10:54:45;;;;;;;3.33;2.53;;;9.90;99.90;;;;;;5126784;28;20182;-65
2021/03/05 10:57:15;;;;;;;5.67;3.00;;;9.90;99.90;;;;;;5126751;28;20190;-64
2021/03/05 10:59:41;;;;;;;5.07;2.57;;;10.30;99.90;;;;;;5124853;28;20313;-64
2021/03/05 11:02:08;;;;;;;5.37;3.17;;;10.50;99.90;;;;;;5125335;28;20171;-65
2021/03/05 11:04:33;;;;;;;7.23;2.77;;;10.60;99.90;;;;;;5126329;28;20163;-65
2021/03/05 11:06:59;;;;;;;7.18;3.20;;;10.70;99.90;;;;;;5126056;28;20467;-64
2021/03/05 11:09:26;;;;;;;5.57;2.50;;;10.80;99.90;;;;;;5126452;28;20616;-64
2021/03/05 11:11:52;;;;;;;6.20;2.60;;;10.80;99.90;;;;;;5123707;28;20734;-65
2021/03/05 11:14:18;;;;;;;9.67;2.60;;;10.50;99.90;;;;;;5126475;28;20158;-65
2021/03/05 11:16:44;;;;;;;3.40;2.27;;;10.40;99.90;;;;;;5126190;28;20166;-65
2021/03/05 11:19:10;;;;;;;4.20;2.37;;;10.30;99.90;;;;;;5126381;28;20159;-66
2021/03/05 11:21:36;;;;;;;3.93;2.57;;;10.00;99.90;;;;;;5123651;28;20541;-65
2021/03/05 11:24:02;;;;;;;5.60;2.60;;;9.90;99.90;;;;;;5126255;28;20158;-65
2021/03/05 11:26:28;;;;;;;4.23;2.93;;;9.60;99.90;;;;;;5126034;28;20177;-66
2021/03/05 11:28:54;;;;;;;6.40;2.77;;;9.00;99.90;;;;;;5126267;28;20234;-65
2021/03/05 11:31:21;;;;;;;7.10;2.87;;;9.00;99.90;;;;;;5123359;28;20170;-64
2021/03/05 11:33:47;;;;;;;3.80;2.80;;;9.20;99.90;;;;;;5125072;28;20415;-66
2021/03/05 11:36:14;;;;;;;5.50;2.50;;;9.60;99.90;;;;;;5126088;28;20161;-64
2021/03/05 11:38:44;;;;;;;3.60;2.23;;;9.80;99.90;;;;;;5125977;28;20642;-65
2021/03/05 11:41:10;;;;;;;3.07;2.40;;;10.10;99.90;;;;;;5123273;28;20190;-65
2021/03/05 11:43:46;;;;;;;5.73;2.40;;;10.20;99.90;;;;;;5125912;28;20167;-65
2021/03/05 11:46:12;;;;;;;4.67;2.90;;;10.10;99.90;;;;;;5125942;28;20537;-64
2021/03/05 11:48:38;;;;;;;6.97;2.50;;;10.10;99.90;;;;;;5125923;28;20171;-65
2021/03/05 11:51:04;;;;;;;8.27;2.70;;;10.30;99.90;;;;;;5123462;28;20640;-66
2021/03/05 11:53:30;;;;;;;6.63;2.80;;;10.70;99.90;;;;;;5125810;28;20600;-64
2021/03/05 11:55:55;;;;;;;3.77;2.70;;;11.00;99.90;;;;;;5125849;28;20235;-65
2021/03/05 11:58:21;;;;;;;2.60;2.23;;;11.00;99.90;;;;;;5126217;28;20218;-65
2021/03/05 12:00:48;;;;;;;3.83;2.73;;;11.00;99.90;;;;;;5121858;28;20170;-65
2021/03/05 12:03:14;;;;;;;5.90;2.70;;;11.10;99.90;;;;;;5124775;28;20197;-68
2021/03/05 12:05:39;;;;;;;4.67;2.87;;;11.20;99.90;;;;;;5126048;28;20160;-67
2021/03/05 12:08:05;;;;;;;5.03;2.57;;;11.40;99.90;;;;;;5125959;28;20166;-68
2021/03/05 12:10:31;;;;;;;5.67;2.40;;;11.40;99.90;;;;;;5122992;28;20215;-68
2021/03/05 12:12:56;;;;;;;3.90;2.57;;;11.20;99.90;;;;;;5125874;28;20267;-67
2021/03/05 12:15:22;;;;;;;5.07;2.50;;;11.40;99.90;;;;;;5126023;28;20163;-67
2021/03/05 12:17:48;;;;;;;6.83;2.77;;;11.50;99.90;;;;;;5125663;28;20162;-67
2021/03/05 12:20:14;;;;;;;5.83;2.67;;;10.20;99.90;;;;;;5123262;28;20155;-68
2021/03/05 12:22:39;;;;;;;5.80;2.17;;;9.70;99.90;;;;;;5125504;28;20171;-68
2021/03/05 12:25:08;;;;;;;3.43;2.67;;;10.00;99.90;;;;;;5124444;28;20200;-68
2021/03/05 12:27:34;;;;;;;4.20;2.50;;;9.90;99.90;;;;;;5125682;28;20242;-65
2021/03/05 12:30:02;;;;;;;6.83;2.43;;;10.00;99.90;;;;;;5121796;28;20421;-67
2021/03/05 12:32:27;;;;;;;4.80;2.03;;;10.10;99.90;;;;;;5123888;28;20541;-67
2021/03/05 12:34:53;;;;;;;3.97;2.57;;;10.50;99.90;;;;;;5125775;28;20426;-67
2021/03/05 12:37:19;;;;;;;2.40;2.20;;;10.90;99.90;;;;;;5125688;28;20179;-68
2021/03/05 12:39:44;;;;;;;2.30;2.10;;;11.20;99.90;;;;;;5123555;28;20378;-67
2021/03/05 12:42:10;;;;;;;4.00;2.30;;;11.60;99.90;;;;;;5124937;28;20210;-67
2021/03/05 12:44:36;;;;;;;2.53;2.03;;;11.80;99.90;;;;;;5129248;28;20170;-68
2021/03/05 12:47:02;;;;;;;6.50;2.30;;;10.40;99.90;;;;;;5129184;28;20175;-68
2021/03/05 12:49:28;;;;;;;3.97;2.37;;;10.70;99.90;;;;;;5128875;28;20542;-67
2021/03/05 12:51:53;;;;;;;5.73;2.43;;;11.20;99.90;;;;;;5125478;28;20190;-67
2021/03/05 12:54:19;;;;;;;3.13;2.03;;;11.50;99.90;;;;;;5127910;28;20194;-68